Time;durP1;ratioP1;P1;durP2;ratioP2;P2;SDS_P1;SDS_P2;PMS_P1;PMS_P2;Temp;Humidity;BMP_temperature;BMP_pressure;BME280_temperature;BME280_humidity;BME280_pressure;Samples;Min_cycle;Max_cycle;Signal;HPM_P1;HPM_P2
2021/10/08 00:01:29;;;;;;;13.23;4.28;;;14.80;83.90;;;;;;4992678;28;20065;-87
2021/10/08 00:03:55;;;;;;;18.80;4.53;;;14.90;84.00;;;;;;4988486;28;20025;-88
2021/10/08 00:06:20;;;;;;;8.95;3.70;;;14.80;83.90;;;;;;5000539;28;20068;-87
2021/10/08 00:08:46;;;;;;;13.57;3.65;;;14.80;84.50;;;;;;5006347;28;20109;-87
2021/10/08 00:11:12;;;;;;;14.93;3.78;;;14.80;83.90;;;;;;4984522;28;20038;-87
2021/10/08 00:13:37;;;;;;;13.70;4.00;;;14.70;83.80;;;;;;4993047;28;20053;-87
2021/10/08 00:16:05;;;;;;;12.30;3.40;;;14.80;83.90;;;;;;4991839;28;20041;-88
2021/10/08 00:18:31;;;;;;;14.10;4.13;;;14.80;83.90;;;;;;4992963;28;20428;-88
2021/10/08 00:20:57;;;;;;;14.00;4.07;;;14.70;83.90;;;;;;4991802;28;20033;-88
2021/10/08 00:23:22;;;;;;;13.05;3.83;;;14.70;83.90;;;;;;4993852;28;20470;-87
2021/10/08 00:25:48;;;;;;;21.30;4.15;;;14.70;83.90;;;;;;4991567;28;20025;-88
2021/10/08 00:28:13;;;;;;;8.25;3.55;;;14.70;84.00;;;;;;4992097;28;20037;-88
2021/10/08 00:30:39;;;;;;;8.50;3.72;;;14.70;84.00;;;;;;5006544;28;20037;-88
2021/10/08 00:33:04;;;;;;;4.72;2.90;;;14.70;84.00;;;;;;4992798;28;20159;-88
2021/10/08 00:35:30;;;;;;;9.18;3.60;;;14.70;84.00;;;;;;4989639;28;20129;-88
2021/10/08 00:37:55;;;;;;;11.80;3.50;;;14.70;84.00;;;;;;4993299;28;20133;-88
2021/10/08 00:40:21;;;;;;;12.90;3.65;;;14.70;84.10;;;;;;4991653;28;20029;-88
2021/10/08 00:42:47;;;;;;;11.20;3.15;;;14.70;84.10;;;;;;4990847;28;20029;-88
2021/10/08 00:45:13;;;;;;;10.35;3.15;;;14.70;84.10;;;;;;4992657;28;20030;-87
2021/10/08 00:47:39;;;;;;;12.20;2.85;;;14.70;84.10;;;;;;4991811;28;20028;-88
2021/10/08 00:50:08;;;;;;;10.45;3.15;;;14.60;84.20;;;;;;5006816;28;20053;-87
2021/10/08 00:52:34;;;;;;;7.07;3.00;;;14.70;84.20;;;;;;5009020;28;20117;-88
2021/10/08 00:54:59;;;;;;;7.85;3.10;;;14.60;84.20;;;;;;4990890;28;20232;-88
2021/10/08 00:57:25;;;;;;;7.95;3.08;;;14.60;84.20;;;;;;4989560;28;20441;-87
2021/10/08 00:59:50;;;;;;;9.55;3.58;;;14.90;84.50;;;;;;4988106;28;20648;-88
2021/10/08 01:02:16;;;;;;;7.25;3.28;;;14.60;84.30;;;;;;4990291;28;20085;-89
2021/10/08 01:04:42;;;;;;;7.28;2.80;;;14.70;84.40;;;;;;4991155;28;20412;-88
2021/10/08 01:07:08;;;;;;;8.05;3.50;;;14.60;84.50;;;;;;5008045;28;20033;-88
2021/10/08 01:09:33;;;;;;;11.23;3.30;;;14.70;84.60;;;;;;4991016;28;20022;-87
2021/10/08 01:11:59;;;;;;;4.30;2.70;;;14.60;84.50;;;;;;4990434;28;20054;-89
2021/10/08 01:14:24;;;;;;;11.98;4.05;;;14.60;84.50;;;;;;4991255;28;20802;-88
2021/10/08 01:16:50;;;;;;;7.68;3.72;;;14.60;84.60;;;;;;4992113;28;20034;-88
2021/10/08 01:19:16;;;;;;;5.78;3.30;;;14.60;84.60;;;;;;4990898;28;20112;-88
2021/10/08 01:21:42;;;;;;;6.25;3.47;;;14.70;84.60;;;;;;4990403;28;20041;-88
2021/10/08 01:24:08;;;;;;;9.02;3.63;;;14.60;84.60;;;;;;4990036;28;20030;-89
2021/10/08 01:26:33;;;;;;;7.47;3.50;;;14.60;84.70;;;;;;4987763;28;20030;-88
2021/10/08 01:28:59;;;;;;;5.45;3.78;;;14.60;84.70;;;;;;4989930;28;20183;-88
2021/10/08 01:31:24;;;;;;;8.30;3.40;;;14.60;84.70;;;;;;4990641;28;20176;-88
2021/10/08 01:33:50;;;;;;;8.05;3.65;;;14.50;84.70;;;;;;4992363;28;20102;-88
2021/10/08 01:36:16;;;;;;;4.78;3.13;;;14.50;84.70;;;;;;4991490;28;20041;-88
2021/10/08 01:38:41;;;;;;;9.57;3.72;;;14.50;84.80;;;;;;4991004;28;20112;-87
2021/10/08 01:41:07;;;;;;;6.72;3.28;;;14.50;84.80;;;;;;4980848;28;20046;-87
2021/10/08 01:43:32;;;;;;;4.57;3.10;;;14.60;84.90;;;;;;5003454;28;20014;-88
2021/10/08 01:45:58;;;;;;;11.02;3.42;;;14.50;84.80;;;;;;4993534;28;20044;-88
2021/10/08 01:48:24;;;;;;;7.63;3.78;;;14.80;85.00;;;;;;4996337;28;20507;-88
2021/10/08 01:50:49;;;;;;;6.65;4.57;;;14.50;84.90;;;;;;4995180;28;20028;-88
2021/10/08 01:53:15;;;;;;;12.02;5.30;;;14.50;84.90;;;;;;4993052;28;20687;-87
2021/10/08 01:55:40;;;;;;;8.73;5.03;;;14.50;84.90;;;;;;4994311;28;20022;-88
2021/10/08 01:58:06;;;;;;;7.70;4.68;;;14.50;84.90;;;;;;5011943;28;20106;-88
2021/10/08 02:00:31;;;;;;;14.98;5.38;;;14.40;84.90;;;;;;5011301;28;20106;-88
2021/10/08 02:02:57;;;;;;;11.00;5.13;;;14.50;85.00;;;;;;4995068;28;20037;-88
2021/10/08 02:05:22;;;;;;;9.98;4.63;;;14.50;85.00;;;;;;4995612;28;20040;-87
2021/10/08 02:07:48;;;;;;;9.20;4.88;;;14.50;85.10;;;;;;4996862;28;20040;-87
2021/10/08 02:10:14;;;;;;;6.30;4.63;;;14.50;85.10;;;;;;4991445;28;20033;-89
2021/10/08 02:12:40;;;;;;;11.07;4.80;;;14.50;85.00;;;;;;4995922;28;20493;-88
2021/10/08 02:15:06;;;;;;;8.32;4.80;;;14.50;85.00;;;;;;4991094;28;20045;-88
2021/10/08 02:17:31;;;;;;;7.75;4.50;;;14.50;85.00;;;;;;4992395;28;20034;-90
2021/10/08 02:19:57;;;;;;;6.38;4.20;;;14.50;85.00;;;;;;4991554;28;20026;-88
2021/10/08 02:22:22;;;;;;;9.02;4.53;;;14.40;85.00;;;;;;4993957;28;20539;-89
2021/10/08 02:24:49;;;;;;;7.78;3.88;;;14.40;85.00;;;;;;4991391;28;20503;-88
2021/10/08 02:27:14;;;;;;;7.97;4.30;;;14.40;85.00;;;;;;4994866;28;20469;-88
2021/10/08 02:29:40;;;;;;;6.22;3.70;;;14.80;85.30;;;;;;4992591;28;20025;-88
2021/10/08 02:32:05;;;;;;;4.93;3.38;;;14.40;85.10;;;;;;4993300;28;20029;-89
2021/10/08 02:34:31;;;;;;;6.78;4.05;;;14.40;85.10;;;;;;4995069;28;20055;-88
2021/10/08 02:36:57;;;;;;;5.47;3.67;;;14.40;85.10;;;;;;4994923;28;20022;-88
2021/10/08 02:39:22;;;;;;;7.93;4.15;;;14.40;85.10;;;;;;4992736;28;20029;-88
2021/10/08 02:41:48;;;;;;;8.10;3.95;;;14.40;85.10;;;;;;4994136;28;20022;-89
2021/10/08 02:44:14;;;;;;;5.70;4.05;;;14.40;85.10;;;;;;4993110;28;20030;-88
2021/10/08 02:46:40;;;;;;;6.43;3.92;;;14.50;85.30;;;;;;4993649;28;20157;-88
2021/10/08 02:49:06;;;;;;;5.63;3.35;;;14.50;85.30;;;;;;4991257;28;20058;-88
2021/10/08 02:51:33;;;;;;;4.22;3.42;;;14.50;85.40;;;;;;5010112;28;20090;-88
2021/10/08 02:54:00;;;;;;;4.68;3.35;;;14.40;85.30;;;;;;4992176;28;20121;-88
2021/10/08 02:56:26;;;;;;;3.80;3.35;;;14.40;85.40;;;;;;5010526;28;20030;-88
2021/10/08 02:58:51;;;;;;;6.22;3.00;;;14.60;85.60;;;;;;4991157;28;20675;-87
2021/10/08 03:01:17;;;;;;;4.47;3.30;;;14.50;85.60;;;;;;4993800;28;20037;-87
2021/10/08 03:03:42;;;;;;;6.82;3.50;;;14.50;85.60;;;;;;4992340;28;20476;-87
2021/10/08 03:06:08;;;;;;;5.15;3.22;;;14.50;85.60;;;;;;4994225;28;20084;-87
2021/10/08 03:08:34;;;;;;;6.15;3.22;;;14.40;85.50;;;;;;4992455;28;20030;-88
2021/10/08 03:11:05;;;;;;;5.25;3.40;;;14.60;85.60;;;;;;5007606;28;20382;-88
2021/10/08 03:13:31;;;;;;;5.75;3.53;;;14.70;85.70;;;;;;4991980;28;20042;-88
2021/10/08 03:15:56;;;;;;;4.90;3.50;;;14.50;85.60;;;;;;4990229;28;20072;-87
2021/10/08 03:18:22;;;;;;;5.78;3.35;;;14.50;85.60;;;;;;4993507;28;20033;-88
2021/10/08 03:20:48;;;;;;;6.63;3.45;;;14.40;85.60;;;;;;4994333;28;20022;-87
2021/10/08 03:23:13;;;;;;;5.22;3.25;;;14.40;85.60;;;;;;4990312;28;20064;-88
2021/10/08 03:25:39;;;;;;;4.03;3.30;;;14.50;85.70;;;;;;4993275;28;20029;-87
2021/10/08 03:28:04;;;;;;;5.80;3.53;;;14.40;85.70;;;;;;4986882;28;20037;-88
2021/10/08 03:30:30;;;;;;;6.57;3.80;;;14.30;85.60;;;;;;4992360;28;20017;-89
2021/10/08 03:32:55;;;;;;;5.63;3.63;;;14.40;85.60;;;;;;4990801;28;20026;-88
2021/10/08 03:35:21;;;;;;;5.97;4.53;;;14.30;85.60;;;;;;4990191;28;20025;-88
2021/10/08 03:40:20;;;;;;;7.53;3.60;;;14.30;85.60;;;;;;5004890;28;20017;-87
2021/10/08 03:42:45;;;;;;;4.63;3.55;;;14.30;85.60;;;;;;5005877;23;20100;-62
2021/10/08 03:45:14;;;;;;;8.65;4.47;;;14.30;85.70;;;;;;5004616;28;20563;-62
2021/10/08 03:50:38;;;;;;;6.70;4.13;;;14.30;85.70;;;;;;4989738;28;20800;-62
2021/10/08 03:53:05;;;;;;;6.32;4.75;;;14.30;85.80;;;;;;4986457;28;20033;-62
2021/10/08 03:55:30;;;;;;;6.60;4.07;;;14.30;85.80;;;;;;5002058;28;20072;-62
2021/10/08 03:57:56;;;;;;;5.50;3.90;;;14.30;85.90;;;;;;5002508;28;20117;-62
2021/10/08 04:00:21;;;;;;;5.18;4.13;;;14.30;85.90;;;;;;5018268;28;20500;-61
2021/10/08 04:02:47;;;;;;;5.35;3.70;;;14.30;85.90;;;;;;4983165;28;20038;-61
2021/10/08 04:05:12;;;;;;;5.70;4.07;;;14.30;85.80;;;;;;5000599;28;20050;-62
2021/10/08 04:07:38;;;;;;;6.45;3.92;;;14.30;85.80;;;;;;5002496;28;20044;-62
2021/10/08 04:10:04;;;;;;;5.10;4.00;;;14.30;85.80;;;;;;5002819;28;20477;-61
2021/10/08 04:12:29;;;;;;;4.65;3.88;;;14.30;85.80;;;;;;5000920;28;20030;-62
2021/10/08 04:14:55;;;;;;;5.43;4.00;;;14.30;85.80;;;;;;4985073;28;21141;-62
2021/10/08 04:17:20;;;;;;;7.32;4.30;;;14.30;85.80;;;;;;5001720;28;20132;-61
2021/10/08 04:19:46;;;;;;;4.45;3.97;;;14.30;85.80;;;;;;5002166;28;20022;-61
2021/10/08 04:22:11;;;;;;;5.95;4.15;;;14.30;85.90;;;;;;5003578;28;20524;-61
2021/10/08 04:24:37;;;;;;;10.65;4.40;;;14.30;85.90;;;;;;5004632;28;20037;-62
2021/10/08 04:27:02;;;;;;;6.22;4.00;;;14.30;86.00;;;;;;5005181;28;20045;-62
2021/10/08 04:29:28;;;;;;;5.30;3.60;;;14.20;86.00;;;;;;5003559;28;20022;-62
2021/10/08 04:31:53;;;;;;;5.95;3.88;;;14.20;86.00;;;;;;5002767;28;20061;-62
2021/10/08 04:34:19;;;;;;;5.20;3.90;;;14.20;86.10;;;;;;5003441;28;20504;-62
2021/10/08 04:36:44;;;;;;;5.68;4.10;;;14.20;86.20;;;;;;5001391;28;20126;-62
2021/10/08 04:39:10;;;;;;;4.65;3.90;;;14.20;86.30;;;;;;5004331;28;20052;-62
2021/10/08 04:41:35;;;;;;;5.50;4.20;;;14.20;86.30;;;;;;5004939;28;20026;-61
2021/10/08 04:44:01;;;;;;;6.25;4.25;;;14.20;86.40;;;;;;5003125;28;20069;-62
2021/10/08 04:46:26;;;;;;;4.35;3.88;;;14.10;86.30;;;;;;5003949;28;20057;-62
2021/10/08 04:48:52;;;;;;;4.78;3.85;;;14.10;86.50;;;;;;4970876;28;20072;-61
2021/10/08 04:51:17;;;;;;;5.00;3.60;;;14.10;86.40;;;;;;5003500;28;20101;-61
2021/10/08 04:53:43;;;;;;;3.72;3.03;;;14.10;86.40;;;;;;4987149;28;20724;-62
2021/10/08 04:56:08;;;;;;;4.82;3.63;;;14.10;86.40;;;;;;5004366;28;20029;-61
2021/10/08 04:58:34;;;;;;;5.85;4.18;;;14.10;86.40;;;;;;5004180;28;20037;-62
2021/10/08 05:00:59;;;;;;;5.88;4.22;;;14.10;86.40;;;;;;4987609;28;20052;-63
2021/10/08 05:03:25;;;;;;;5.60;3.58;;;14.10;86.50;;;;;;5001496;28;20022;-62
2021/10/08 05:05:51;;;;;;;7.20;3.85;;;14.10;86.50;;;;;;5001453;28;20442;-61
2021/10/08 05:08:18;;;;;;;6.28;4.28;;;14.10;86.50;;;;;;5003269;28;20025;-61
2021/10/08 05:10:44;;;;;;;6.10;3.55;;;14.10;86.50;;;;;;5001985;28;20038;-62
2021/10/08 05:13:09;;;;;;;5.30;3.75;;;14.10;86.50;;;;;;5003105;28;20069;-62
2021/10/08 05:15:35;;;;;;;6.18;3.80;;;14.10;86.60;;;;;;5003579;28;20477;-62
2021/10/08 05:18:00;;;;;;;4.80;3.63;;;14.00;86.50;;;;;;5005690;28;20107;-62
2021/10/08 05:20:26;;;;;;;7.18;3.50;;;14.00;86.50;;;;;;5004208;28;20041;-62
2021/10/08 05:22:51;;;;;;;5.20;3.38;;;14.10;86.60;;;;;;5006687;28;20050;-61
2021/10/08 05:25:17;;;;;;;4.03;3.63;;;14.00;86.60;;;;;;5005254;28;20499;-62
2021/10/08 05:27:43;;;;;;;4.18;3.35;;;14.00;86.70;;;;;;5022701;28;20556;-61
2021/10/08 05:30:09;;;;;;;5.95;3.90;;;14.00;86.80;;;;;;5007850;28;20056;-62
2021/10/08 05:32:35;;;;;;;4.53;3.60;;;14.00;86.80;;;;;;5007522;28;20026;-61
2021/10/08 05:35:00;;;;;;;4.65;3.58;;;14.00;86.80;;;;;;5006086;28;20038;-62
2021/10/08 05:37:26;;;;;;;3.85;3.22;;;14.00;86.80;;;;;;4989170;28;20045;-62
2021/10/08 05:39:51;;;;;;;4.78;3.67;;;14.00;86.90;;;;;;5006462;28;20034;-62
2021/10/08 05:42:17;;;;;;;4.70;3.38;;;14.00;87.00;;;;;;5007627;28;20519;-62
2021/10/08 05:44:42;;;;;;;5.30;4.15;;;13.90;87.10;;;;;;5008162;28;20056;-62
2021/10/08 05:47:08;;;;;;;4.20;3.80;;;13.90;87.10;;;;;;5006997;28;20063;-62
2021/10/08 05:49:33;;;;;;;5.38;3.75;;;13.90;87.20;;;;;;5006542;28;20067;-62
2021/10/08 05:51:59;;;;;;;7.53;3.75;;;13.90;87.20;;;;;;5008430;28;20200;-62
2021/10/08 05:54:25;;;;;;;5.00;3.88;;;13.90;87.30;;;;;;5006311;28;20026;-61
2021/10/08 05:56:50;;;;;;;4.25;3.50;;;13.90;87.30;;;;;;5006401;28;20034;-62
2021/10/08 05:59:16;;;;;;;4.18;3.60;;;13.90;87.30;;;;;;5005685;28;20505;-61
2021/10/08 06:01:42;;;;;;;5.15;4.15;;;13.90;87.30;;;;;;5003330;28;20041;-62
2021/10/08 06:04:08;;;;;;;4.88;3.97;;;13.90;87.40;;;;;;5006163;28;20362;-61
2021/10/08 06:06:33;;;;;;;4.28;3.88;;;13.90;87.50;;;;;;5006148;28;20026;-62
2021/10/08 06:08:59;;;;;;;6.40;4.35;;;13.90;87.50;;;;;;5007189;28;20117;-61
2021/10/08 06:11:25;;;;;;;4.13;3.50;;;13.80;87.40;;;;;;4989875;28;20037;-62
2021/10/08 06:13:50;;;;;;;4.60;3.40;;;13.90;87.50;;;;;;5004356;28;20160;-62
2021/10/08 06:16:16;;;;;;;6.78;3.75;;;13.90;87.50;;;;;;4988713;28;20050;-62
2021/10/08 06:18:41;;;;;;;7.47;3.67;;;13.90;87.50;;;;;;5004014;28;20028;-62
2021/10/08 06:21:07;;;;;;;4.90;3.80;;;13.90;87.50;;;;;;5005925;28;20034;-62
2021/10/08 06:23:32;;;;;;;6.68;4.07;;;13.90;87.50;;;;;;5005088;28;20034;-62
2021/10/08 06:25:58;;;;;;;10.75;3.90;;;13.90;87.50;;;;;;4988210;28;20038;-62
2021/10/08 06:28:24;;;;;;;10.57;4.00;;;13.90;87.70;;;;;;5005464;28;20073;-62
2021/10/08 06:30:50;;;;;;;7.63;4.25;;;13.90;87.80;;;;;;5002987;28;20056;-62
2021/10/08 06:33:16;;;;;;;7.68;4.40;;;13.90;87.80;;;;;;4988193;28;20421;-62
2021/10/08 06:35:42;;;;;;;10.38;4.10;;;13.90;87.80;;;;;;5003929;28;20161;-61
2021/10/08 06:38:09;;;;;;;6.13;4.18;;;13.90;87.90;;;;;;5004601;28;20030;-61
2021/10/08 06:40:36;;;;;;;8.45;4.78;;;13.90;87.80;;;;;;4982570;28;20444;-63
2021/10/08 06:43:01;;;;;;;8.45;4.50;;;13.90;87.90;;;;;;4986129;28;20042;-62
2021/10/08 06:45:28;;;;;;;5.60;4.10;;;13.90;88.00;;;;;;5000814;28;20072;-62
2021/10/08 06:47:53;;;;;;;7.30;4.03;;;13.90;88.00;;;;;;5003889;28;20113;-62
2021/10/08 06:50:19;;;;;;;12.10;4.75;;;13.90;88.10;;;;;;5006164;28;20113;-63
2021/10/08 06:52:44;;;;;;;17.77;5.65;;;13.90;88.10;;;;;;5004025;28;20069;-62
2021/10/08 06:55:10;;;;;;;9.52;4.72;;;14.00;88.20;;;;;;4987940;28;20032;-63
2021/10/08 06:57:35;;;;;;;15.13;5.03;;;13.90;88.30;;;;;;5002645;28;20053;-62
2021/10/08 07:00:01;;;;;;;24.33;5.28;;;14.00;88.30;;;;;;5003494;28;20507;-61
2021/10/08 07:02:26;;;;;;;21.20;5.07;;;14.00;88.40;;;;;;5004940;28;20481;-62
2021/10/08 07:04:52;;;;;;;14.13;6.25;;;14.00;88.50;;;;;;5005729;28;20477;-62
2021/10/08 07:07:17;;;;;;;22.08;7.45;;;14.00;88.80;;;;;;4987027;28;20042;-62
2021/10/08 07:09:43;;;;;;;14.27;6.85;;;14.00;89.40;;;;;;4987947;28;20436;-62
2021/10/08 07:12:09;;;;;;;19.65;7.47;;;13.90;89.80;;;;;;5005154;28;20014;-62
2021/10/08 07:14:34;;;;;;;7.65;6.90;;;13.90;90.00;;;;;;5005468;28;20030;-61
2021/10/08 07:17:00;;;;;;;12.82;6.82;;;13.90;90.10;;;;;;5005454;28;20057;-62
2021/10/08 07:19:25;;;;;;;8.75;7.20;;;13.80;90.20;;;;;;4986925;28;20465;-62
2021/10/08 07:21:51;;;;;;;11.50;7.10;;;13.80;90.40;;;;;;4986424;28;20400;-61
2021/10/08 07:24:17;;;;;;;9.90;6.95;;;13.80;90.40;;;;;;5005978;28;20041;-61
2021/10/08 07:26:42;;;;;;;10.70;6.72;;;13.80;90.60;;;;;;5003071;28;20057;-62
2021/10/08 07:29:08;;;;;;;19.40;7.20;;;13.80;90.60;;;;;;5004988;28;20045;-62
2021/10/08 07:31:34;;;;;;;13.80;7.35;;;13.80;90.60;;;;;;4990816;28;20432;-61
2021/10/08 07:33:59;;;;;;;15.68;6.57;;;13.70;90.60;;;;;;5001837;28;20456;-62
2021/10/08 07:36:25;;;;;;;12.88;7.57;;;13.70;90.70;;;;;;5003289;28;20042;-61
2021/10/08 07:38:50;;;;;;;11.57;6.88;;;13.70;90.80;;;;;;5001877;28;20374;-62
2021/10/08 07:41:16;;;;;;;13.93;7.55;;;13.70;90.80;;;;;;4988123;28;20021;-62
2021/10/08 07:43:41;;;;;;;10.70;7.32;;;13.70;90.80;;;;;;4986851;28;20385;-62
2021/10/08 07:46:08;;;;;;;10.57;6.93;;;13.70;90.90;;;;;;5000636;28;20029;-62
2021/10/08 07:48:33;;;;;;;13.65;7.60;;;13.70;90.90;;;;;;4980156;28;20060;-62
2021/10/08 07:50:59;;;;;;;13.10;7.57;;;13.60;91.00;;;;;;4999072;28;20054;-62
2021/10/08 07:53:25;;;;;;;15.85;7.45;;;13.60;91.00;;;;;;4996851;28;20030;-62
2021/10/08 07:55:50;;;;;;;20.48;8.27;;;13.60;91.10;;;;;;4999111;28;20038;-61
2021/10/08 07:58:16;;;;;;;23.77;8.27;;;13.60;91.10;;;;;;4997816;28;20084;-62
2021/10/08 08:00:41;;;;;;;18.27;7.82;;;13.60;91.10;;;;;;4983211;28;20687;-62
2021/10/08 08:03:07;;;;;;;31.80;8.80;;;13.70;91.10;;;;;;5001378;28;20471;-62
2021/10/08 08:05:32;;;;;;;44.38;8.57;;;13.70;91.00;;;;;;4988587;28;20033;-61
2021/10/08 08:07:58;;;;;;;386.13;38.15;;;13.70;91.00;;;;;;5003626;28;20034;-61
2021/10/08 08:10:23;;;;;;;88.35;12.07;;;13.70;91.00;;;;;;5004194;28;20473;-62
2021/10/08 08:12:49;;;;;;;80.32;12.77;;;13.70;90.90;;;;;;4986229;28;20038;-61
2021/10/08 08:15:15;;;;;;;254.32;27.00;;;13.80;90.80;;;;;;4986528;28;20040;-62
2021/10/08 08:17:41;;;;;;;71.75;12.27;;;13.80;90.90;;;;;;5004107;28;20570;-61
2021/10/08 08:20:07;;;;;;;60.47;11.45;;;13.80;90.80;;;;;;4971475;28;20251;-61
2021/10/08 08:22:33;;;;;;;65.95;11.07;;;13.90;90.70;;;;;;4971435;28;20504;-63
2021/10/08 08:24:58;;;;;;;53.28;11.27;;;13.90;90.80;;;;;;5004437;28;20088;-62
2021/10/08 08:27:24;;;;;;;60.10;11.68;;;13.90;90.90;;;;;;5002267;28;20038;-62
2021/10/08 08:29:50;;;;;;;73.55;12.32;;;13.90;90.90;;;;;;5003434;28;20064;-61
2021/10/08 08:32:15;;;;;;;86.28;12.07;;;13.90;90.90;;;;;;4987394;28;20080;-62
2021/10/08 08:34:41;;;;;;;78.20;12.82;;;13.90;90.90;;;;;;5003770;28;20022;-62
2021/10/08 08:37:07;;;;;;;65.03;12.70;;;14.00;91.00;;;;;;5003482;28;20382;-62
2021/10/08 08:39:34;;;;;;;358.05;30.70;;;14.00;91.00;;;;;;5000934;28;20472;-62
2021/10/08 08:41:59;;;;;;;111.28;14.40;;;14.00;91.00;;;;;;4984429;28;20485;-62
2021/10/08 08:44:25;;;;;;;57.55;11.18;;;14.00;90.90;;;;;;4985554;28;20037;-61
2021/10/08 08:46:50;;;;;;;65.78;11.75;;;14.00;91.00;;;;;;4985791;28;20021;-61
2021/10/08 08:49:16;;;;;;;68.32;11.63;;;14.00;90.80;;;;;;5000204;28;20052;-62
2021/10/08 08:51:42;;;;;;;64.43;11.90;;;14.00;90.70;;;;;;4999512;28;20041;-61
2021/10/08 08:54:07;;;;;;;66.18;11.80;;;14.00;90.70;;;;;;4999217;28;20040;-62
2021/10/08 08:56:34;;;;;;;76.10;12.50;;;14.10;90.60;;;;;;5000466;28;20113;-61
2021/10/08 08:59:10;;;;;;;60.15;11.63;;;14.10;90.60;;;;;;5019137;28;20033;-61
2021/10/08 09:01:36;;;;;;;72.20;12.27;;;14.10;90.80;;;;;;5020037;28;20634;-62
2021/10/08 09:04:06;;;;;;;84.30;12.10;;;14.10;90.80;;;;;;5021280;28;20495;-62
2021/10/08 09:06:33;;;;;;;80.90;12.38;;;14.10;90.70;;;;;;5019128;28;20041;-61
2021/10/08 09:08:58;;;;;;;70.63;12.85;;;14.40;91.10;;;;;;5021996;28;20025;-62
2021/10/08 09:11:36;;;;;;;63.42;10.85;;;14.10;90.70;;;;;;5021095;28;20021;-62
2021/10/08 09:14:37;;;;;;;70.53;11.68;;;14.20;90.60;;;;;;5004294;28;20176;-61
2021/10/08 09:17:06;;;;;;;80.82;11.88;;;14.20;90.70;;;;;;4938741;28;20447;-62
2021/10/08 09:19:48;;;;;;;72.65;12.88;;;14.30;90.70;;;;;;5001476;28;20044;-62
2021/10/08 09:22:18;;;;;;;71.97;13.25;;;14.30;90.70;;;;;;5021450;28;20026;-61
2021/10/08 09:24:44;;;;;;;59.45;12.52;;;14.30;90.60;;;;;;5004993;28;20018;-61
2021/10/08 09:27:10;;;;;;;71.03;12.45;;;14.30;90.60;;;;;;5021278;28;20080;-62
2021/10/08 09:29:36;;;;;;;101.78;13.30;;;14.30;90.70;;;;;;5004171;28;20026;-62
2021/10/08 09:32:02;;;;;;;75.82;12.65;;;14.40;90.90;;;;;;5022129;28;20510;-62
2021/10/08 09:34:27;;;;;;;86.65;12.43;;;14.40;90.80;;;;;;5019684;28;20446;-62
2021/10/08 09:36:58;;;;;;;87.15;12.38;;;14.40;90.60;;;;;;5017846;28;20123;-61
2021/10/08 09:39:29;;;;;;;87.10;13.00;;;14.40;90.70;;;;;;5017582;28;21510;-61
2021/10/08 09:42:02;;;;;;;67.25;10.75;;;14.40;90.70;;;;;;4987487;28;20455;-61
2021/10/08 09:44:29;;;;;;;77.28;11.77;;;14.50;90.60;;;;;;5018346;28;20679;-62
2021/10/08 09:47:16;;;;;;;74.18;12.40;;;14.50;90.50;;;;;;5000397;28;20040;-61
2021/10/08 09:49:42;;;;;;;86.07;13.73;;;14.50;90.50;;;;;;5015837;28;20112;-62
2021/10/08 09:52:37;;;;;;;104.88;12.75;;;14.50;90.40;;;;;;4997981;28;20416;-61
2021/10/08 09:55:06;;;;;;;82.28;13.77;;;14.50;90.20;;;;;;4995243;28;20296;-61
2021/10/08 09:57:51;;;;;;;48.90;11.00;;;14.50;90.20;;;;;;4999515;28;20089;-62
2021/10/08 10:00:50;;;;;;;65.70;10.32;;;14.60;90.10;;;;;;5018832;28;20041;-62
2021/10/08 10:03:17;;;;;;;78.93;10.52;;;14.60;90.30;;;;;;5020012;28;20029;-61
2021/10/08 10:05:43;;;;;;;68.15;12.55;;;14.60;90.30;;;;;;5023699;28;20241;-61
2021/10/08 10:08:09;;;;;;;61.33;10.68;;;14.60;90.40;;;;;;5007295;28;20116;-61
2021/10/08 10:10:35;;;;;;;61.25;10.90;;;14.60;90.40;;;;;;5006552;28;20149;-62
2021/10/08 10:13:01;;;;;;;64.22;11.43;;;14.70;90.20;;;;;;5024590;28;20033;-62
2021/10/08 10:15:27;;;;;;;62.45;11.93;;;14.70;90.20;;;;;;5005586;28;20049;-61
2021/10/08 10:17:52;;;;;;;73.25;11.90;;;14.80;90.20;;;;;;5016855;28;20542;-62
2021/10/08 10:20:18;;;;;;;70.55;11.32;;;14.80;90.20;;;;;;4999627;28;20026;-62
2021/10/08 10:22:43;;;;;;;96.50;13.32;;;14.80;90.20;;;;;;5019825;28;20048;-61
2021/10/08 10:25:12;;;;;;;83.63;12.38;;;14.80;90.10;;;;;;5001789;28;20028;-61
2021/10/08 10:27:41;;;;;;;87.03;14.05;;;14.80;90.20;;;;;;5017211;28;20022;-61
2021/10/08 10:30:09;;;;;;;59.08;12.20;;;14.80;90.30;;;;;;5004947;28;20037;-61
2021/10/08 10:32:34;;;;;;;72.97;12.10;;;14.90;90.20;;;;;;5003261;28;20072;-61
2021/10/08 10:35:03;;;;;;;73.03;13.45;;;14.90;90.20;;;;;;4997976;28;20033;-61
2021/10/08 10:37:41;;;;;;;77.35;12.27;;;14.90;90.20;;;;;;5016793;28;20595;-62
2021/10/08 10:40:20;;;;;;;99.95;14.55;;;14.90;90.10;;;;;;5000637;28;20032;-61
2021/10/08 10:42:47;;;;;;;70.07;13.13;;;15.00;90.10;;;;;;5001731;28;20524;-61
2021/10/08 10:45:18;;;;;;;55.55;11.50;;;15.00;90.10;;;;;;5019403;28;20057;-61
2021/10/08 10:47:46;;;;;;;85.32;14.35;;;15.00;90.10;;;;;;5018852;28;20021;-62
2021/10/08 10:50:39;;;;;;;64.95;12.40;;;15.10;90.20;;;;;;5003414;28;20064;-62
2021/10/08 10:53:05;;;;;;;55.22;11.77;;;15.10;90.10;;;;;;5020454;28;20037;-62
2021/10/08 10:55:32;;;;;;;52.97;12.13;;;15.10;90.10;;;;;;5003355;28;20041;-61
2021/10/08 10:58:03;;;;;;;73.35;13.30;;;15.20;90.10;;;;;;5004260;28;20021;-62
2021/10/08 11:00:36;;;;;;;45.63;11.10;;;15.20;90.00;;;;;;5021628;28;20041;-61
2021/10/08 11:03:09;;;;;;;64.68;11.80;;;15.20;89.80;;;;;;5019492;28;20059;-61
2021/10/08 11:05:37;;;;;;;62.85;12.55;;;15.20;89.50;;;;;;5019980;28;20025;-61
2021/10/08 11:08:15;;;;;;;295.60;28.83;;;15.30;89.60;;;;;;5004383;28;20057;-62
2021/10/08 11:10:41;;;;;;;116.57;16.00;;;15.30;89.50;;;;;;5019590;28;20025;-62
2021/10/08 11:13:19;;;;;;;70.70;12.48;;;15.30;89.50;;;;;;5019364;28;20057;-62
2021/10/08 11:16:03;;;;;;;55.72;10.82;;;15.30;89.20;;;;;;5022274;28;20727;-62
2021/10/08 11:18:40;;;;;;;58.63;10.55;;;15.40;89.30;;;;;;5021038;28;20080;-61
2021/10/08 11:21:06;;;;;;;55.70;11.82;;;15.40;89.20;;;;;;5007478;28;20025;-61
2021/10/08 11:23:36;;;;;;;85.95;14.10;;;15.50;89.50;;;;;;5005056;28;20108;-61
2021/10/08 11:26:04;;;;;;;64.40;12.00;;;15.50;89.60;;;;;;5019248;28;20033;-62
2021/10/08 11:28:35;;;;;;;25.33;8.68;;;15.50;89.60;;;;;;5019535;28;20033;-62
2021/10/08 11:31:00;;;;;;;24.60;9.18;;;15.50;88.60;;;;;;5002014;28;20261;-61
2021/10/08 11:33:43;;;;;;;49.60;10.55;;;15.50;88.10;;;;;;4985116;28;20485;-61
2021/10/08 11:36:13;;;;;;;23.13;9.70;;;15.50;88.20;;;;;;5021777;28;20034;-62
2021/10/08 11:38:39;;;;;;;28.90;8.57;;;15.50;88.20;;;;;;5003055;28;20037;-61
2021/10/08 11:41:20;;;;;;;23.35;8.40;;;15.50;88.00;;;;;;4999664;28;20416;-61
2021/10/08 11:43:48;;;;;;;26.35;8.50;;;15.60;87.90;;;;;;5016403;28;20038;-61
2021/10/08 11:46:57;;;;;;;27.27;8.45;;;15.60;87.60;;;;;;5002534;28;20021;-62
2021/10/08 11:49:39;;;;;;;15.57;7.72;;;15.60;87.30;;;;;;5014855;28;20099;-62
2021/10/08 11:52:04;;;;;;;18.52;8.00;;;15.60;87.30;;;;;;5007653;28;20120;-61
2021/10/08 11:54:30;;;;;;;13.25;7.28;;;15.60;86.90;;;;;;5018893;28;20128;-61
2021/10/08 11:57:09;;;;;;;23.40;8.18;;;15.60;86.50;;;;;;5019718;28;20119;-62
2021/10/08 11:59:36;;;;;;;25.38;8.50;;;15.60;86.80;;;;;;5003337;28;20052;-61
2021/10/08 12:02:12;;;;;;;22.02;8.77;;;15.60;86.60;;;;;;5020404;28;20635;-62
2021/10/08 12:04:39;;;;;;;19.40;7.97;;;15.60;86.40;;;;;;5014919;28;20033;-61
2021/10/08 12:07:07;;;;;;;21.95;8.68;;;15.60;86.30;;;;;;5018414;28;20040;-61
2021/10/08 12:09:32;;;;;;;29.40;7.47;;;15.60;85.90;;;;;;4999221;28;20022;-62
2021/10/08 12:11:58;;;;;;;26.08;8.10;;;15.70;85.80;;;;;;5015070;28;20288;-62
2021/10/08 12:14:24;;;;;;;30.40;8.38;;;15.70;85.80;;;;;;4978569;28;20026;-61
2021/10/08 12:16:49;;;;;;;24.70;8.23;;;15.80;85.80;;;;;;5000988;28;20491;-63
2021/10/08 12:19:15;;;;;;;22.60;7.60;;;15.80;85.50;;;;;;5016426;28;20072;-63
2021/10/08 12:21:41;;;;;;;20.80;7.93;;;15.90;85.60;;;;;;5017127;28;20038;-62
2021/10/08 12:24:11;;;;;;;16.88;7.90;;;15.90;85.40;;;;;;5012891;28;20021;-62
2021/10/08 12:26:38;;;;;;;43.38;9.80;;;15.90;85.10;;;;;;5012221;28;20025;-62
2021/10/08 12:29:11;;;;;;;57.28;11.43;;;15.90;84.90;;;;;;5012048;28;20029;-62
2021/10/08 12:31:50;;;;;;;30.35;8.45;;;16.00;85.30;;;;;;4996286;28;20044;-61
2021/10/08 12:34:46;;;;;;;29.95;8.52;;;16.10;84.70;;;;;;5009373;28;20046;-62
2021/10/08 12:37:15;;;;;;;23.35;8.38;;;16.10;84.00;;;;;;5015563;28;20030;-62
2021/10/08 12:39:56;;;;;;;17.33;7.55;;;16.20;84.00;;;;;;5008444;28;20420;-62
2021/10/08 12:42:24;;;;;;;25.23;10.15;;;16.20;84.10;;;;;;5003489;28;20037;-63
2021/10/08 12:44:58;;;;;;;31.80;8.95;;;16.20;84.00;;;;;;5025974;28;20033;-61